Time;durP1;ratioP1;P1;durP2;ratioP2;P2;SDS_P1;SDS_P2;PMS_P1;PMS_P2;Temp;Humidity;BMP_temperature;BMP_pressure;BME280_temperature;BME280_humidity;BME280_pressure;Samples;Min_cycle;Max_cycle;Signal;HPM_P1;HPM_P2
2021/03/29 00:04:32;;;;;;;7.97;4.70;;;11.10;26.90;;;;;;10410865;28;20230;-70
2021/03/29 00:09:37;;;;;;;7.10;4.40;;;11.10;26.80;;;;;;10409302;28;20288;-70
2021/03/29 00:14:41;;;;;;;4.30;3.90;;;11.00;27.10;;;;;;10410356;28;20245;-70
2021/03/29 00:19:45;;;;;;;5.20;3.97;;;11.00;27.10;;;;;;10405715;28;20240;-70
2021/03/29 00:24:48;;;;;;;4.63;3.80;;;10.90;27.00;;;;;;10412210;28;20261;-71
2021/03/29 00:29:51;;;;;;;3.73;3.33;;;10.90;27.00;;;;;;10414201;28;20705;-70
2021/03/29 00:34:54;;;;;;;6.13;4.03;;;10.90;27.00;;;;;;10411547;28;20230;-69
2021/03/29 00:39:57;;;;;;;6.50;4.07;;;10.90;27.00;;;;;;10412469;28;20222;-70
2021/03/29 00:45:01;;;;;;;4.53;3.83;;;10.80;26.90;;;;;;10411672;28;20230;-69
2021/03/29 00:50:10;;;;;;;6.73;4.20;;;10.70;27.00;;;;;;10405281;28;20756;-70
2021/03/29 00:55:13;;;;;;;4.17;3.77;;;10.70;27.60;;;;;;10411027;28;20225;-69
2021/03/29 01:00:20;;;;;;;4.03;3.63;;;10.60;27.00;;;;;;10410558;28;20229;-70
2021/03/29 01:05:22;;;;;;;4.73;3.40;;;10.60;27.50;;;;;;10410205;28;20233;-70
2021/03/29 01:10:25;;;;;;;4.80;3.77;;;10.50;27.10;;;;;;10410399;28;20225;-70
2021/03/29 01:15:29;;;;;;;3.73;3.43;;;10.40;27.20;;;;;;10406075;28;20234;-70
2021/03/29 01:20:41;;;;;;;4.53;3.57;;;10.40;27.40;;;;;;10409033;28;20230;-70
2021/03/29 01:25:49;;;;;;;3.97;3.57;;;10.40;27.80;;;;;;10414446;28;20252;-70
2021/03/29 01:30:54;;;;;;;4.00;3.50;;;10.30;27.40;;;;;;10408124;28;20308;-70
2021/03/29 01:35:59;;;;;;;4.77;3.97;;;10.20;27.50;;;;;;10409398;28;20237;-70
2021/03/29 01:41:03;;;;;;;4.00;3.50;;;10.10;27.70;;;;;;10408306;28;20236;-70
2021/03/29 01:46:08;;;;;;;4.00;3.30;;;9.90;28.20;;;;;;10401474;28;20235;-70
2021/03/29 01:51:10;;;;;;;3.60;3.30;;;9.70;28.70;;;;;;10407059;28;20236;-70
2021/03/29 01:56:14;;;;;;;5.13;3.07;;;9.60;28.50;;;;;;10408254;28;20286;-70
2021/03/29 02:01:17;;;;;;;4.87;3.20;;;9.60;28.80;;;;;;10407596;28;20221;-70
2021/03/29 02:06:19;;;;;;;4.43;3.37;;;9.60;28.80;;;;;;10406703;28;20240;-70
2021/03/29 02:11:22;;;;;;;6.13;3.17;;;9.60;28.60;;;;;;10407866;28;20763;-70
2021/03/29 02:16:28;;;;;;;4.17;3.17;;;9.50;28.70;;;;;;10406228;28;20665;-70
2021/03/29 02:21:34;;;;;;;3.77;3.03;;;9.50;28.70;;;;;;10407789;28;20235;-70
2021/03/29 02:26:40;;;;;;;5.40;3.43;;;9.40;28.70;;;;;;10408119;28;20240;-70
2021/03/29 02:31:43;;;;;;;3.47;3.07;;;9.30;28.60;;;;;;10406888;28;20222;-70
2021/03/29 02:36:46;;;;;;;7.67;4.33;;;9.20;28.50;;;;;;10404243;28;20244;-70
2021/03/29 02:41:50;;;;;;;4.67;4.10;;;9.20;28.50;;;;;;10406059;28;20600;-70
2021/03/29 02:46:53;;;;;;;4.57;3.37;;;9.20;28.50;;;;;;10405369;28;20233;-70
2021/03/29 02:51:56;;;;;;;3.97;3.03;;;9.10;28.50;;;;;;10405307;28;20225;-70
2021/03/29 02:57:00;;;;;;;4.10;3.10;;;9.10;28.50;;;;;;10402839;28;20233;-70
2021/03/29 03:02:03;;;;;;;4.23;3.30;;;9.00;28.50;;;;;;10404917;28;20300;-70
2021/03/29 03:07:06;;;;;;;3.07;2.77;;;9.00;28.70;;;;;;10398405;28;20229;-70
2021/03/29 03:12:10;;;;;;;5.40;3.40;;;8.90;28.70;;;;;;10402851;28;20450;-70
2021/03/29 03:17:13;;;;;;;6.23;3.37;;;8.80;28.70;;;;;;10400540;28;20317;-70
2021/03/29 03:22:15;;;;;;;3.40;2.93;;;8.80;28.80;;;;;;10405801;28;20233;-70
2021/03/29 03:27:18;;;;;;;4.70;3.13;;;8.70;28.80;;;;;;10403585;28;20588;-70
2021/03/29 03:32:21;;;;;;;3.37;2.83;;;8.70;28.90;;;;;;10405266;28;20255;-70
2021/03/29 03:37:23;;;;;;;2.87;2.67;;;8.60;29.00;;;;;;10380683;28;602609;-70
2021/03/29 03:42:26;;;;;;;4.47;3.10;;;8.60;28.90;;;;;;10405481;28;20421;-70
2021/03/29 03:47:30;;;;;;;3.07;2.87;;;8.60;29.10;;;;;;10405202;28;20268;-69
2021/03/29 03:52:32;;;;;;;4.90;3.20;;;8.50;29.30;;;;;;10405939;28;20615;-69
2021/03/29 03:57:36;;;;;;;3.47;3.00;;;8.40;29.10;;;;;;10405874;28;20325;-69
2021/03/29 04:02:40;;;;;;;4.13;3.20;;;8.40;29.30;;;;;;10409227;28;20229;-69
2021/03/29 04:07:43;;;;;;;3.33;3.03;;;8.40;29.50;;;;;;10416878;28;20241;-69
2021/03/29 04:12:50;;;;;;;4.60;3.13;;;8.40;29.40;;;;;;10408802;28;20236;-69
2021/03/29 04:17:53;;;;;;;3.70;3.30;;;8.40;29.70;;;;;;10412920;28;20312;-69
2021/03/29 04:22:56;;;;;;;3.30;3.00;;;8.40;29.60;;;;;;10413280;28;20284;-69
2021/03/29 04:27:59;;;;;;;5.10;2.97;;;8.40;29.60;;;;;;10412417;28;20225;-69
2021/03/29 04:33:02;;;;;;;4.87;3.60;;;8.40;29.40;;;;;;10412838;28;20232;-69
2021/03/29 04:38:04;;;;;;;3.23;2.90;;;8.40;29.60;;;;;;10411640;28;20222;-69
2021/03/29 04:43:06;;;;;;;4.50;2.90;;;8.40;29.40;;;;;;10407303;28;20315;-69
2021/03/29 04:48:10;;;;;;;7.70;3.50;;;8.40;29.40;;;;;;10411171;28;20226;-70
2021/03/29 04:53:12;;;;;;;3.93;3.40;;;8.40;29.70;;;;;;10412569;28;20320;-69
2021/03/29 04:58:14;;;;;;;3.50;3.10;;;8.40;29.40;;;;;;10412884;28;20220;-69
2021/03/29 05:03:17;;;;;;;4.37;2.90;;;8.40;29.50;;;;;;10410826;28;20607;-69
2021/03/29 05:08:20;;;;;;;5.37;3.23;;;8.40;29.60;;;;;;10411807;28;20226;-70
2021/03/29 05:13:22;;;;;;;4.47;3.00;;;8.40;29.50;;;;;;10407886;28;20583;-70
2021/03/29 05:18:27;;;;;;;3.83;3.43;;;8.30;29.40;;;;;;10410447;28;20709;-70
2021/03/29 05:23:29;;;;;;;5.07;3.13;;;8.20;29.70;;;;;;10405008;28;20602;-70
2021/03/29 05:28:31;;;;;;;5.00;3.37;;;8.20;29.60;;;;;;10409956;28;20221;-70
2021/03/29 05:33:34;;;;;;;3.87;3.47;;;8.20;29.80;;;;;;10409811;28;20268;-70
2021/03/29 05:38:36;;;;;;;4.70;3.70;;;8.20;29.90;;;;;;10406151;28;20249;-70
2021/03/29 05:43:39;;;;;;;4.07;3.63;;;8.10;29.80;;;;;;10413143;28;20241;-70
2021/03/29 05:48:42;;;;;;;5.67;4.20;;;8.00;29.90;;;;;;10408104;28;20225;-70
2021/03/29 05:53:45;;;;;;;8.57;5.47;;;8.00;30.20;;;;;;10408812;28;20728;-70
2021/03/29 05:59:03;;;;;;;8.80;5.67;;;7.90;30.10;;;;;;10410810;28;20218;-70
2021/03/29 06:04:06;;;;;;;8.17;6.70;;;7.80;30.40;;;;;;10404088;28;20224;-70
2021/03/29 06:09:09;;;;;;;5.83;4.80;;;7.90;30.90;;;;;;10407592;28;20234;-70
2021/03/29 06:14:14;;;;;;;5.47;4.90;;;7.90;30.70;;;;;;10405564;28;20630;-70
2021/03/29 06:19:37;;;;;;;8.00;5.27;;;8.00;31.30;;;;;;10407208;28;20604;-70
2021/03/29 06:25:01;;;;;;;5.57;4.57;;;8.10;32.40;;;;;;10405776;28;20601;-70
2021/03/29 06:30:24;;;;;;;4.33;3.93;;;8.20;32.40;;;;;;10399312;28;20222;-70
2021/03/29 06:35:31;;;;;;;4.20;3.60;;;8.30;32.70;;;;;;10407267;28;20312;-70
2021/03/29 06:40:35;;;;;;;5.13;3.67;;;8.40;32.00;;;;;;10408018;28;20309;-69
2021/03/29 06:45:37;;;;;;;5.67;4.00;;;8.50;31.70;;;;;;10407149;28;20356;-69
2021/03/29 06:50:40;;;;;;;7.97;3.90;;;8.70;31.70;;;;;;10400387;28;20646;-69
2021/03/29 06:55:43;;;;;;;5.50;3.63;;;8.80;32.10;;;;;;10404941;28;20230;-69
2021/03/29 07:00:45;;;;;;;5.03;3.80;;;9.00;32.00;;;;;;10412110;28;20605;-70
2021/03/29 07:05:49;;;;;;;5.20;3.43;;;9.20;32.20;;;;;;10401306;28;20240;-69
2021/03/29 07:10:53;;;;;;;6.23;3.33;;;9.40;32.40;;;;;;10406753;28;20606;-69
2021/03/29 07:15:59;;;;;;;5.20;3.70;;;9.60;32.70;;;;;;10418139;28;20244;-69
2021/03/29 07:21:05;;;;;;;7.13;3.83;;;9.80;32.60;;;;;;10410053;28;20221;-69
2021/03/29 07:26:29;;;;;;;5.90;3.37;;;10.10;32.00;;;;;;10425227;28;20238;-69
2021/03/29 07:31:42;;;;;;;5.13;3.50;;;10.40;32.20;;;;;;10411518;28;20228;-70
2021/03/29 07:36:47;;;;;;;4.53;3.30;;;10.60;32.00;;;;;;10414733;28;20272;-70
2021/03/29 07:42:23;;;;;;;4.90;3.40;;;10.90;31.40;;;;;;10409850;28;20752;-70
2021/03/29 07:47:48;;;;;;;4.57;3.40;;;11.20;31.90;;;;;;10417878;28;20677;-70
2021/03/29 07:52:52;;;;;;;5.57;3.43;;;11.50;31.70;;;;;;10414982;28;20253;-70
2021/03/29 07:58:08;;;;;;;5.33;3.27;;;11.80;32.00;;;;;;10415142;28;20698;-69
2021/03/29 08:03:53;;;;;;;6.93;3.70;;;12.10;31.50;;;;;;10415900;28;20313;-70
2021/03/29 08:08:56;;;;;;;5.77;3.53;;;12.40;31.10;;;;;;10416386;28;20295;-70
2021/03/29 08:13:58;;;;;;;5.40;3.80;;;12.80;30.80;;;;;;10417405;28;20224;-70
2021/03/29 08:19:12;;;;;;;4.40;3.60;;;13.10;30.90;;;;;;10416356;28;20276;-70
2021/03/29 08:24:22;;;;;;;39.07;21.17;;;13.40;30.70;;;;;;10408242;28;20221;-70
2021/03/29 08:29:30;;;;;;;8.77;5.37;;;13.70;31.00;;;;;;10411008;28;20300;-70
2021/03/29 08:34:34;;;;;;;5.60;4.07;;;14.00;30.90;;;;;;10418099;28;20225;-70
2021/03/29 08:39:39;;;;;;;4.63;3.57;;;14.30;31.10;;;;;;10424614;28;20709;-70
2021/03/29 08:44:43;;;;;;;4.63;3.80;;;14.60;30.90;;;;;;10411773;28;20271;-70
2021/03/29 08:49:49;;;;;;;3.90;3.13;;;14.90;30.30;;;;;;10412836;28;20304;-71
2021/03/29 08:54:56;;;;;;;4.43;3.57;;;15.10;30.30;;;;;;10422737;28;20231;-70
2021/03/29 08:59:59;;;;;;;5.07;3.00;;;15.50;30.20;;;;;;10412707;28;20701;-70
2021/03/29 09:05:04;;;;;;;3.60;3.10;;;15.80;30.10;;;;;;10419091;28;20222;-70
2021/03/29 09:10:22;;;;;;;2.93;2.30;;;16.00;30.30;;;;;;10414695;28;20308;-70
2021/03/29 09:15:26;;;;;;;3.80;2.07;;;16.40;29.40;;;;;;10410624;28;20316;-70
2021/03/29 09:20:30;;;;;;;3.17;2.07;;;16.70;29.40;;;;;;10409299;28;20236;-70
2021/03/29 09:25:38;;;;;;;4.70;2.83;;;17.00;28.80;;;;;;10407870;28;20324;-70
2021/03/29 09:30:41;;;;;;;2.90;1.73;;;17.30;28.50;;;;;;10410759;28;20230;-70
2021/03/29 09:35:44;;;;;;;2.90;2.03;;;17.60;28.00;;;;;;10412223;28;20240;-70
2021/03/29 09:40:47;;;;;;;4.33;1.90;;;17.70;27.50;;;;;;10410758;28;20231;-70
2021/03/29 09:45:50;;;;;;;2.80;2.10;;;17.90;27.30;;;;;;10411093;28;20777;-70
2021/03/29 09:50:52;;;;;;;3.27;2.10;;;17.90;27.20;;;;;;10414420;28;20705;-70
2021/03/29 09:56:13;;;;;;;2.97;2.00;;;18.00;26.90;;;;;;10407254;28;20230;-69
2021/03/29 10:01:20;;;;;;;5.23;2.03;;;18.10;26.70;;;;;;10403520;28;20530;-70
2021/03/29 10:06:26;;;;;;;3.50;2.40;;;18.20;26.00;;;;;;10410416;28;20233;-70
2021/03/29 10:11:43;;;;;;;3.93;2.33;;;18.40;26.60;;;;;;10406169;28;20229;-69
2021/03/29 10:16:47;;;;;;;3.47;2.20;;;18.60;25.90;;;;;;10410318;28;20229;-70
2021/03/29 10:22:11;;;;;;;4.37;2.17;;;18.80;26.30;;;;;;10415952;28;20236;-70
2021/03/29 10:27:14;;;;;;;3.50;2.10;;;19.00;26.00;;;;;;10409238;28;20603;-69
2021/03/29 10:32:18;;;;;;;4.47;2.50;;;19.20;26.20;;;;;;10409709;28;20221;-70
2021/03/29 10:37:23;;;;;;;3.57;2.20;;;19.30;25.40;;;;;;10408249;28;20232;-70
2021/03/29 10:42:29;;;;;;;3.33;1.87;;;19.30;25.60;;;;;;10411871;28;20226;-70
2021/03/29 10:47:31;;;;;;;3.13;1.83;;;19.40;24.90;;;;;;10409440;28;20228;-70
2021/03/29 10:52:33;;;;;;;3.43;1.80;;;19.50;25.50;;;;;;10415087;28;20229;-70
2021/03/29 10:57:36;;;;;;;2.67;1.73;;;19.60;25.00;;;;;;10406037;28;20230;-70
2021/03/29 11:02:38;;;;;;;3.93;1.87;;;19.80;25.10;;;;;;10404147;28;20225;-70
2021/03/29 11:07:40;;;;;;;3.13;1.77;;;19.90;24.70;;;;;;10410395;28;20261;-70
2021/03/29 11:12:44;;;;;;;5.00;2.10;;;20.10;24.40;;;;;;10410785;28;20259;-70
2021/03/29 11:17:46;;;;;;;2.90;1.83;;;20.20;24.40;;;;;;10416751;28;20233;-69
2021/03/29 11:22:48;;;;;;;2.07;1.70;;;20.30;24.80;;;;;;10414458;28;20230;-70
2021/03/29 11:27:51;;;;;;;4.10;1.90;;;20.40;24.60;;;;;;10418308;28;20236;-70
2021/03/29 11:32:53;;;;;;;3.13;1.60;;;20.50;23.80;;;;;;10414310;28;20236;-70
2021/03/29 11:37:56;;;;;;;5.30;2.10;;;20.60;23.00;;;;;;10415662;28;20309;-70
2021/03/29 11:43:00;;;;;;;4.10;1.90;;;20.50;23.00;;;;;;10418218;28;20231;-70
2021/03/29 11:48:02;;;;;;;2.40;1.83;;;20.50;22.70;;;;;;10418322;28;20222;-70
2021/03/29 11:53:04;;;;;;;2.80;2.00;;;20.50;23.20;;;;;;10410565;28;20694;-70
2021/03/29 11:58:13;;;;;;;3.13;2.00;;;20.60;23.40;;;;;;10417253;28;20237;-70
2021/03/29 12:03:20;;;;;;;3.07;2.20;;;20.70;22.90;;;;;;10412866;28;20237;-70
2021/03/29 12:08:29;;;;;;;2.63;1.80;;;20.80;22.90;;;;;;10413460;28;20229;-70
2021/03/29 12:13:34;;;;;;;3.10;2.30;;;20.90;22.60;;;;;;10417790;28;20233;-70
2021/03/29 12:18:42;;;;;;;2.87;1.97;;;21.00;22.20;;;;;;10417017;28;20693;-70
2021/03/29 12:23:46;;;;;;;3.27;2.20;;;21.00;22.60;;;;;;10414345;28;20296;-70
2021/03/29 12:28:51;;;;;;;3.00;2.23;;;21.10;22.20;;;;;;10430476;28;20226;-70
2021/03/29 12:33:56;;;;;;;5.80;3.67;;;21.10;21.50;;;;;;10411268;28;20240;-70
2021/03/29 12:39:03;;;;;;;3.03;1.87;;;21.10;21.40;;;;;;10413473;28;20301;-70
2021/03/29 12:44:12;;;;;;;2.83;1.60;;;21.20;21.30;;;;;;10409291;28;20799;-70
2021/03/29 12:49:16;;;;;;;2.27;1.80;;;21.20;20.00;;;;;;10413064;28;20709;-70
2021/03/29 12:54:22;;;;;;;3.23;1.80;;;21.20;20.30;;;;;;10414068;28;20261;-70
2021/03/29 12:59:26;;;;;;;1.83;1.63;;;21.10;20.60;;;;;;10411714;28;20229;-70
2021/03/29 13:04:29;;;;;;;2.63;1.90;;;21.10;20.50;;;;;;10420046;28;20611;-76
2021/03/29 13:09:41;;;;;;;2.57;1.90;;;21.20;20.60;;;;;;10409388;28;20232;-70
2021/03/29 13:15:00;;;;;;;3.60;1.80;;;21.20;19.40;;;;;;10407047;28;20230;-71
2021/03/29 13:20:03;;;;;;;1.70;1.60;;;21.30;19.70;;;;;;10412102;28;20229;-70
2021/03/29 13:25:07;;;;;;;3.33;1.67;;;21.40;20.40;;;;;;10414967;28;20236;-71
2021/03/29 13:30:12;;;;;;;2.20;1.93;;;21.40;19.90;;;;;;10416127;28;20229;-71
2021/03/29 13:35:15;;;;;;;2.57;1.90;;;21.40;19.20;;;;;;10407670;28;20601;-71
2021/03/29 13:40:18;;;;;;;2.57;1.87;;;21.40;20.10;;;;;;10417222;28;20594;-71
2021/03/29 13:45:24;;;;;;;3.33;2.00;;;21.50;20.00;;;;;;10411653;28;20757;-71
2021/03/29 13:50:26;;;;;;;3.17;1.87;;;21.60;19.20;;;;;;10407650;28;20239;-71
2021/03/29 13:55:28;;;;;;;2.53;1.70;;;21.70;19.80;;;;;;10412537;28;20347;-71
2021/03/29 14:00:32;;;;;;;3.47;1.90;;;21.80;19.40;;;;;;10411115;28;20236;-70
2021/03/29 14:05:35;;;;;;;2.57;1.70;;;21.80;18.70;;;;;;10410652;28;20244;-73
2021/03/29 14:10:38;;;;;;;2.57;1.70;;;21.80;18.50;;;;;;10409148;28;20352;-72
2021/03/29 14:15:44;;;;;;;2.80;1.70;;;21.90;18.30;;;;;;10413859;28;20272;-71
2021/03/29 14:20:47;;;;;;;2.63;1.70;;;21.90;18.30;;;;;;10409238;28;20229;-69
2021/03/29 14:25:50;;;;;;;3.17;2.00;;;22.00;18.40;;;;;;10406702;28;20234;-69
2021/03/29 14:30:53;;;;;;;1.90;1.80;;;21.90;18.20;;;;;;10410110;28;20349;-69
2021/03/29 14:36:03;;;;;;;3.87;1.90;;;22.00;18.00;;;;;;10407257;28;20236;-69
2021/03/29 14:41:22;;;;;;;2.40;1.90;;;22.10;18.40;;;;;;10409087;28;20223;-69
2021/03/29 14:46:26;;;;;;;4.00;2.10;;;22.10;18.80;;;;;;10412708;28;20602;-69
2021/03/29 14:51:29;;;;;;;2.50;2.10;;;22.10;17.80;;;;;;10409686;28;20308;-69
2021/03/29 14:56:31;;;;;;;2.50;2.30;;;22.10;17.80;;;;;;10407924;28;20236;-69
2021/03/29 15:01:36;;;;;;;2.60;2.40;;;22.10;17.70;;;;;;10406759;28;20258;-69
2021/03/29 15:06:44;;;;;;;4.67;2.23;;;22.10;17.10;;;;;;10406868;28;20248;-69
2021/03/29 15:11:46;;;;;;;2.83;2.40;;;22.10;18.30;;;;;;10409889;28;20244;-69
2021/03/29 15:16:57;;;;;;;2.67;2.47;;;22.10;17.40;;;;;;10407843;28;20328;-70
2021/03/29 15:21:59;;;;;;;2.97;2.47;;;22.10;18.20;;;;;;10403933;28;20234;-70
2021/03/29 15:27:02;;;;;;;2.80;2.50;;;22.10;17.90;;;;;;10406777;28;20233;-68
2021/03/29 15:32:06;;;;;;;2.83;2.40;;;22.10;18.00;;;;;;10410657;28;20343;-69
2021/03/29 15:37:09;;;;;;;2.63;2.27;;;22.10;16.60;;;;;;10406350;28;20254;-69
2021/03/29 15:42:12;;;;;;;2.67;2.10;;;22.10;17.20;;;;;;10396465;28;20234;-70
2021/03/29 15:47:18;;;;;;;2.33;2.13;;;22.00;17.40;;;;;;10403698;28;20234;-69
2021/03/29 15:52:20;;;;;;;4.00;2.10;;;22.10;16.60;;;;;;10407087;28;20300;-68
2021/03/29 15:57:24;;;;;;;3.43;2.43;;;22.10;17.50;;;;;;10400461;28;20240;-68
2021/03/29 16:02:29;;;;;;;3.70;2.20;;;22.20;17.50;;;;;;10413383;28;20232;-68
2021/03/29 16:07:31;;;;;;;2.77;1.80;;;22.20;17.20;;;;;;10414898;28;20253;-68
2021/03/29 16:12:33;;;;;;;2.57;2.13;;;22.20;17.40;;;;;;10410187;28;20697;-71
2021/03/29 16:17:38;;;;;;;3.17;1.90;;;22.20;17.40;;;;;;10412309;28;20261;-67
2021/03/29 16:22:40;;;;;;;2.70;2.10;;;22.30;17.90;;;;;;10412743;28;20249;-68
2021/03/29 16:27:43;;;;;;;3.00;2.03;;;22.30;16.90;;;;;;10417253;28;20225;-68
2021/03/29 16:32:47;;;;;;;2.50;2.00;;;22.30;17.00;;;;;;10426222;28;20231;-68
2021/03/29 16:37:49;;;;;;;2.87;2.13;;;22.30;17.00;;;;;;10418244;28;20241;-68
2021/03/29 16:42:51;;;;;;;2.00;1.70;;;22.30;17.00;;;;;;10416436;28;20313;-68
2021/03/29 16:47:54;;;;;;;1.90;1.70;;;22.30;17.00;;;;;;10408770;28;20232;-68
2021/03/29 16:52:58;;;;;;;2.63;1.50;;;22.30;16.70;;;;;;10411376;28;20229;-68
2021/03/29 16:58:00;;;;;;;2.23;1.60;;;22.30;17.00;;;;;;10412490;28;20249;-68
2021/03/29 17:03:03;;;;;;;2.10;1.90;;;22.20;17.50;;;;;;10408201;28;20312;-68
2021/03/29 17:08:06;;;;;;;1.70;1.60;;;22.20;17.10;;;;;;10410629;28;20763;-68
2021/03/29 17:13:09;;;;;;;2.20;1.90;;;22.20;17.50;;;;;;10410231;28;20805;-68
2021/03/29 17:18:12;;;;;;;3.40;1.53;;;22.20;17.40;;;;;;10410236;28;20221;-68
2021/03/29 17:23:14;;;;;;;2.97;1.40;;;22.10;17.80;;;;;;10409538;28;20221;-68
2021/03/29 17:28:16;;;;;;;1.83;1.50;;;22.00;17.90;;;;;;10411579;28;20800;-68
2021/03/29 17:33:19;;;;;;;2.23;1.50;;;21.90;17.80;;;;;;10410875;28;20233;-68
2021/03/29 17:38:22;;;;;;;2.73;1.53;;;21.80;18.10;;;;;;10408751;28;20238;-68
2021/03/29 17:43:25;;;;;;;1.87;1.30;;;21.70;18.40;;;;;;10408948;28;20252;-68
2021/03/29 17:48:28;;;;;;;2.00;1.50;;;21.50;18.50;;;;;;10407413;28;20230;-68
2021/03/29 17:53:31;;;;;;;2.10;1.93;;;21.40;18.40;;;;;;10408294;28;20230;-68
2021/03/29 17:58:33;;;;;;;2.93;2.73;;;21.30;18.60;;;;;;10408058;28;20276;-68
2021/03/29 18:03:37;;;;;;;4.03;3.60;;;21.20;18.60;;;;;;10407514;28;20248;-68
2021/03/29 18:08:39;;;;;;;6.00;4.37;;;21.10;18.80;;;;;;10404548;28;20794;-68
2021/03/29 18:13:42;;;;;;;4.53;4.00;;;20.90;18.80;;;;;;10415412;28;20230;-68
2021/03/29 18:18:45;;;;;;;4.37;3.90;;;20.70;19.00;;;;;;10408221;28;20257;-68
2021/03/29 18:23:47;;;;;;;4.47;4.00;;;20.60;19.20;;;;;;10408535;28;20244;-68
2021/03/29 18:28:49;;;;;;;3.80;2.60;;;20.40;19.30;;;;;;10404424;28;20312;-69
2021/03/29 18:33:52;;;;;;;6.03;3.17;;;20.30;19.40;;;;;;10409564;28;20308;-68
2021/03/29 18:38:54;;;;;;;7.80;6.60;;;20.10;19.40;;;;;;10406029;28;20256;-68
2021/03/29 18:43:57;;;;;;;8.30;5.43;;;19.90;19.30;;;;;;10407645;28;20225;-68
2021/03/29 18:49:00;;;;;;;9.07;5.33;;;19.60;19.40;;;;;;10403133;28;20231;-69
2021/03/29 18:54:03;;;;;;;6.50;4.50;;;19.40;19.70;;;;;;10410495;28;20647;-69
2021/03/29 18:59:05;;;;;;;6.47;5.10;;;19.10;19.70;;;;;;10405446;28;20781;-68
2021/03/29 19:04:09;;;;;;;6.57;5.30;;;19.00;19.80;;;;;;10411420;28;20234;-68
2021/03/29 19:09:13;;;;;;;5.83;5.03;;;18.70;19.80;;;;;;10403073;28;20768;-68
2021/03/29 19:14:15;;;;;;;6.93;3.77;;;18.40;20.10;;;;;;10402836;28;20649;-68
2021/03/29 19:19:18;;;;;;;4.93;3.40;;;18.10;20.20;;;;;;10405007;28;20237;-68
2021/03/29 19:24:22;;;;;;;11.90;8.83;;;18.00;20.50;;;;;;10404736;28;25560;-68
2021/03/29 19:29:26;;;;;;;6.97;4.87;;;17.80;20.50;;;;;;10391405;28;20225;-71
2021/03/29 19:34:31;;;;;;;4.13;3.63;;;17.70;20.70;;;;;;10405435;28;20238;-71
2021/03/29 19:39:34;;;;;;;6.83;3.60;;;17.40;20.80;;;;;;10410197;28;20317;-71
2021/03/29 19:44:37;;;;;;;7.20;3.73;;;17.20;20.90;;;;;;10414603;28;20280;-71
2021/03/29 19:49:40;;;;;;;4.43;3.93;;;17.20;21.40;;;;;;10411448;28;20317;-71
2021/03/29 19:54:44;;;;;;;5.10;4.13;;;17.10;21.40;;;;;;10413889;28;20594;-71
2021/03/29 19:59:48;;;;;;;5.53;3.80;;;16.90;21.20;;;;;;10416095;28;20224;-71
2021/03/29 20:04:56;;;;;;;4.90;3.57;;;16.70;21.20;;;;;;10411973;28;20605;-71
2021/03/29 20:09:58;;;;;;;4.37;3.57;;;16.40;21.40;;;;;;10415405;28;20702;-71
2021/03/29 20:15:01;;;;;;;4.03;3.70;;;16.20;21.70;;;;;;10412789;28;20224;-71
2021/03/29 20:20:06;;;;;;;4.03;3.37;;;16.00;21.80;;;;;;10414219;28;20228;-71
2021/03/29 20:25:09;;;;;;;4.43;3.60;;;15.90;22.20;;;;;;10410261;28;20307;-71
2021/03/29 20:30:13;;;;;;;5.60;4.00;;;15.80;22.10;;;;;;10411585;28;20237;-71
2021/03/29 20:35:16;;;;;;;5.63;4.10;;;15.60;22.40;;;;;;10409330;28;20757;-71
2021/03/29 20:40:19;;;;;;;5.90;4.27;;;15.40;22.20;;;;;;10415478;28;20221;-71
2021/03/29 20:45:21;;;;;;;5.10;3.80;;;15.30;22.20;;;;;;10407305;28;20233;-71
2021/03/29 20:50:24;;;;;;;5.27;3.60;;;15.20;22.10;;;;;;10411116;28;20240;-71
2021/03/29 20:55:26;;;;;;;3.43;3.13;;;15.00;22.20;;;;;;10416998;28;20236;-71
2021/03/29 21:00:30;;;;;;;3.80;3.50;;;14.90;22.20;;;;;;10409329;28;20312;-71
2021/03/29 21:05:33;;;;;;;4.73;3.60;;;14.80;22.40;;;;;;10415509;28;20714;-71
2021/03/29 21:10:36;;;;;;;4.33;3.40;;;14.70;22.40;;;;;;10413430;28;20756;-70
2021/03/29 21:15:38;;;;;;;3.60;3.10;;;14.50;22.40;;;;;;10410835;28;20233;-71
2021/03/29 21:20:41;;;;;;;3.97;3.07;;;14.40;22.70;;;;;;10409636;28;20236;-71
2021/03/29 21:25:44;;;;;;;5.27;3.90;;;14.40;22.90;;;;;;10409779;28;20240;-71
2021/03/29 21:30:46;;;;;;;6.70;4.10;;;14.30;22.80;;;;;;10412885;28;20313;-71
2021/03/29 21:35:49;;;;;;;4.13;3.70;;;14.30;22.90;;;;;;10407609;28;20594;-71
2021/03/29 21:40:52;;;;;;;5.97;4.30;;;14.20;23.10;;;;;;10408469;28;20225;-71
2021/03/29 21:45:54;;;;;;;4.53;3.90;;;14.20;23.10;;;;;;10409747;28;20591;-71
2021/03/29 21:50:57;;;;;;;3.97;3.57;;;14.20;23.20;;;;;;10409684;28;20309;-71
2021/03/29 21:56:00;;;;;;;7.10;3.93;;;14.10;23.40;;;;;;10410925;28;20233;-70
2021/03/29 22:01:02;;;;;;;10.23;3.80;;;14.00;23.30;;;;;;10407534;28;20324;-70
2021/03/29 22:06:05;;;;;;;6.07;4.83;;;14.00;23.20;;;;;;10409013;28;20721;-70
2021/03/29 22:11:07;;;;;;;5.53;4.37;;;13.80;23.50;;;;;;10407904;28;20229;-70
2021/03/29 22:16:09;;;;;;;4.50;4.10;;;13.70;23.40;;;;;;10414952;28;20305;-70
2021/03/29 22:21:13;;;;;;;4.53;3.90;;;13.60;23.40;;;;;;10407441;28;20283;-70
2021/03/29 22:26:16;;;;;;;6.67;4.30;;;13.50;23.80;;;;;;10406405;28;20226;-70
2021/03/29 22:31:24;;;;;;;4.77;4.13;;;13.30;23.50;;;;;;10407736;28;20579;-70
2021/03/29 22:42:12;;;;;;;7.63;3.60;;;13.30;23.90;;;;;;10364264;28;20229;-70
2021/03/29 22:47:15;;;;;;;5.90;4.10;;;13.30;23.80;;;;;;10401603;28;20225;-70
2021/03/29 22:52:18;;;;;;;4.97;3.93;;;13.30;23.90;;;;;;10411090;28;20256;-70
2021/03/29 22:57:20;;;;;;;4.07;3.50;;;13.20;23.90;;;;;;10408012;28;20749;-70
2021/03/29 23:02:23;;;;;;;8.03;3.73;;;13.20;23.90;;;;;;10407446;28;20715;-70
2021/03/29 23:07:28;;;;;;;6.33;4.10;;;13.20;23.90;;;;;;10412299;28;20236;-70
2021/03/29 23:12:30;;;;;;;5.83;4.00;;;13.10;24.00;;;;;;10419327;28;20217;-70
2021/03/29 23:17:33;;;;;;;4.40;3.93;;;13.00;23.80;;;;;;10418516;28;20311;-70
2021/03/29 23:22:36;;;;;;;7.97;4.53;;;12.90;24.00;;;;;;10414377;28;20274;-70
2021/03/29 23:27:39;;;;;;;4.90;4.33;;;12.70;24.10;;;;;;10420250;28;20230;-70
2021/03/29 23:32:42;;;;;;;5.53;4.20;;;12.50;23.90;;;;;;10414539;28;20653;-70
2021/03/29 23:37:45;;;;;;;6.73;4.13;;;12.30;24.10;;;;;;10412404;28;20225;-70
2021/03/29 23:42:47;;;;;;;5.50;4.60;;;12.20;24.30;;;;;;10412234;28;20661;-70
2021/03/29 23:47:49;;;;;;;5.47;4.30;;;12.00;24.40;;;;;;10416210;28;20602;-70
2021/03/29 23:52:52;;;;;;;5.07;3.97;;;12.00;24.50;;;;;;10414454;28;20229;-70
2021/03/29 23:57:55;;;;;;;5.33;4.07;;;12.00;24.90;;;;;;10413290;28;20233;-70
